sensor_id;sensor_type;location;lat;lon;timestamp;pressure;altitude;pressure_sealevel;temperature;humidity
62544;BME280;48597;49.030;1.822;2024-03-02T00:02:21;98971.00;;;19.58;42.55
62544;BME280;48597;49.030;1.822;2024-03-02T00:04:46;98968.13;;;19.58;42.74
62544;BME280;48597;49.030;1.822;2024-03-02T00:07:14;98975.13;;;19.57;42.66
62544;BME280;48597;49.030;1.822;2024-03-02T00:09:39;98966.25;;;19.55;42.78
62544;BME280;48597;49.030;1.822;2024-03-02T00:12:06;98976.91;;;19.55;42.76
62544;BME280;48597;49.030;1.822;2024-03-02T00:14:32;98978.97;;;19.54;42.77
62544;BME280;48597;49.030;1.822;2024-03-02T00:16:58;98976.59;;;19.53;42.85
62544;BME280;48597;49.030;1.822;2024-03-02T00:19:24;98984.38;;;19.52;42.79
62544;BME280;48597;49.030;1.822;2024-03-02T00:21:50;98981.53;;;19.52;42.68
62544;BME280;48597;49.030;1.822;2024-03-02T00:24:32;98984.38;;;19.52;42.65
62544;BME280;48597;49.030;1.822;2024-03-02T00:26:58;98983.59;;;19.52;42.79
62544;BME280;48597;49.030;1.822;2024-03-02T00:29:24;98979.16;;;19.51;42.70
62544;BME280;48597;49.030;1.822;2024-03-02T00:31:49;98976.31;;;19.51;42.87
62544;BME280;48597;49.030;1.822;2024-03-02T00:34:15;98974.22;;;19.51;42.56
62544;BME280;48597;49.030;1.822;2024-03-02T00:36:43;98983.28;;;19.50;42.68
62544;BME280;48597;49.030;1.822;2024-03-02T00:39:12;98974.72;;;19.50;42.58
62544;BME280;48597;49.030;1.822;2024-03-02T00:41:40;98973.94;;;19.49;42.60
62544;BME280;48597;49.030;1.822;2024-03-02T00:44:09;98987.44;;;19.49;42.62
62544;BME280;48597;49.030;1.822;2024-03-02T00:46:37;98989.47;;;19.48;42.45
62544;BME280;48597;49.030;1.822;2024-03-02T00:49:05;98992.31;;;19.48;42.57
62544;BME280;48597;49.030;1.822;2024-03-02T00:51:33;98996.00;;;19.49;42.42
62544;BME280;48597;49.030;1.822;2024-03-02T00:54:01;98995.19;;;19.48;42.42
62544;BME280;48597;49.030;1.822;2024-03-02T00:56:29;98990.28;;;19.49;42.48
62544;BME280;48597;49.030;1.822;2024-03-02T00:58:55;98989.47;;;19.48;42.56
62544;BME280;48597;49.030;1.822;2024-03-02T01:01:20;98988.69;;;19.48;42.42
62544;BME280;48597;49.030;1.822;2024-03-02T01:03:46;98989.47;;;19.48;42.44
62544;BME280;48597;49.030;1.822;2024-03-02T01:06:11;98985.81;;;19.48;42.29
62544;BME280;48597;49.030;1.822;2024-03-02T01:08:38;98987.91;;;19.47;42.62
62544;BME280;48597;49.030;1.822;2024-03-02T01:11:04;98986.34;;;19.46;42.39
62544;BME280;48597;49.030;1.822;2024-03-02T01:13:30;98985.56;;;19.46;42.32
62544;BME280;48597;49.030;1.822;2024-03-02T01:15:56;98992.06;;;19.46;42.32
62544;BME280;48597;49.030;1.822;2024-03-02T01:18:21;98991.28;;;19.46;42.34
62544;BME280;48597;49.030;1.822;2024-03-02T01:20:47;98983.50;;;19.46;42.34
62544;BME280;48597;49.030;1.822;2024-03-02T01:23:13;98982.69;;;19.46;42.33
62544;BME280;48597;49.030;1.822;2024-03-02T01:25:39;98984.75;;;19.45;42.30
62544;BME280;48597;49.030;1.822;2024-03-02T01:28:04;98993.34;;;19.45;42.23
62544;BME280;48597;49.030;1.822;2024-03-02T01:30:30;98988.13;;;19.44;42.24
62544;BME280;48597;49.030;1.822;2024-03-02T01:32:55;98980.34;;;19.44;42.30
62544;BME280;48597;49.030;1.822;2024-03-02T01:35:21;98990.97;;;19.44;42.18
62544;BME280;48597;49.030;1.822;2024-03-02T01:37:46;98994.31;;;19.42;42.16
62544;BME280;48597;49.030;1.822;2024-03-02T01:40:12;98985.75;;;19.42;42.16
62544;BME280;48597;49.030;1.822;2024-03-02T01:42:40;98987.81;;;19.42;42.25
62544;BME280;48597;49.030;1.822;2024-03-02T01:45:07;98985.75;;;19.42;42.15
62544;BME280;48597;49.030;1.822;2024-03-02T01:47:32;98982.09;;;19.42;42.17
62544;BME280;48597;49.030;1.822;2024-03-02T01:49:58;98974.31;;;19.42;42.16
62544;BME280;48597;49.030;1.822;2024-03-02T01:52:24;98976.38;;;19.42;42.19
62544;BME280;48597;49.030;1.822;2024-03-02T01:54:49;98971.94;;;19.41;42.19
62544;BME280;48597;49.030;1.822;2024-03-02T01:57:15;98971.94;;;19.41;42.26
62544;BME280;48597;49.030;1.822;2024-03-02T01:59:40;98978.47;;;19.41;41.93
62544;BME280;48597;49.030;1.822;2024-03-02T02:02:06;98977.66;;;19.41;42.17
62544;BME280;48597;49.030;1.822;2024-03-02T02:04:32;98965.44;;;19.40;42.15
62544;BME280;48597;49.030;1.822;2024-03-02T02:06:58;98965.16;;;19.38;42.04
62544;BME280;48597;49.030;1.822;2024-03-02T02:09:24;98956.56;;;19.38;42.05
62544;BME280;48597;49.030;1.822;2024-03-02T02:11:50;98955.00;;;19.37;41.78
62544;BME280;48597;49.030;1.822;2024-03-02T02:14:16;98957.38;;;19.39;42.12
62544;BME280;48597;49.030;1.822;2024-03-02T02:16:41;98949.28;;;19.37;41.84
62544;BME280;48597;49.030;1.822;2024-03-02T02:19:07;98949.28;;;19.37;41.74
62544;BME280;48597;49.030;1.822;2024-03-02T02:21:33;98956.56;;;19.38;41.71
62544;BME280;48597;49.030;1.822;2024-03-02T02:23:58;98953.22;;;19.40;41.60
62544;BME280;48597;49.030;1.822;2024-03-02T02:26:24;98948.31;;;19.40;41.51
62544;BME280;48597;49.030;1.822;2024-03-02T02:28:50;98951.16;;;19.40;41.50
62544;BME280;48597;49.030;1.822;2024-03-02T02:31:16;98956.38;;;19.42;41.46
62544;BME280;48597;49.030;1.822;2024-03-02T02:33:42;98953.03;;;19.43;41.49
62544;BME280;48597;49.030;1.822;2024-03-02T02:36:08;98941.31;;;19.41;41.15
62544;BME280;48597;49.030;1.822;2024-03-02T02:38:36;98934.31;;;19.42;41.12
62544;BME280;48597;49.030;1.822;2024-03-02T02:41:03;98930.19;;;19.43;41.05
62544;BME280;48597;49.030;1.822;2024-03-02T02:43:28;98928.91;;;19.44;41.01
62544;BME280;48597;49.030;1.822;2024-03-02T02:45:54;98910.47;;;19.45;40.97
62544;BME280;48597;49.030;1.822;2024-03-02T02:48:19;98913.34;;;19.45;41.05
62544;BME280;48597;49.030;1.822;2024-03-02T02:50:44;98918.56;;;19.47;40.96
62544;BME280;48597;49.030;1.822;2024-03-02T02:53:10;98910.78;;;19.47;40.71
62544;BME280;48597;49.030;1.822;2024-03-02T02:55:35;98912.31;;;19.48;40.82
62544;BME280;48597;49.030;1.822;2024-03-02T02:58:05;98901.22;;;19.50;40.77
62544;BME280;48597;49.030;1.822;2024-03-02T03:00:31;98901.22;;;19.50;40.64
62544;BME280;48597;49.030;1.822;2024-03-02T03:02:56;98886.94;;;19.50;40.74
62544;BME280;48597;49.030;1.822;2024-03-02T03:05:22;98892.66;;;19.50;40.68
62544;BME280;48597;49.030;1.822;2024-03-02T03:07:47;98889.28;;;19.52;40.75
62544;BME280;48597;49.030;1.822;2024-03-02T03:10:15;98892.94;;;19.52;40.69
62544;BME280;48597;49.030;1.822;2024-03-02T03:12:41;98888.00;;;19.53;40.81
62544;BME280;48597;49.030;1.822;2024-03-02T03:15:09;98879.75;;;19.55;40.48
62544;BME280;48597;49.030;1.822;2024-03-02T03:17:35;98879.75;;;19.55;40.65
62544;BME280;48597;49.030;1.822;2024-03-02T03:20:02;98890.38;;;19.54;40.73
62544;BME280;48597;49.030;1.822;2024-03-02T03:22:29;98896.09;;;19.54;40.71
62544;BME280;48597;49.030;1.822;2024-03-02T03:24:55;98896.09;;;19.54;40.75
62544;BME280;48597;49.030;1.822;2024-03-02T03:27:20;98885.16;;;19.53;40.64
62544;BME280;48597;49.030;1.822;2024-03-02T03:29:46;98890.09;;;19.52;40.55
62544;BME280;48597;49.030;1.822;2024-03-02T03:32:11;98885.16;;;19.53;40.71
62544;BME280;48597;49.030;1.822;2024-03-02T03:34:37;98884.38;;;19.52;40.70
62544;BME280;48597;49.030;1.822;2024-03-02T03:37:03;98887.22;;;19.52;40.74
62544;BME280;48597;49.030;1.822;2024-03-02T03:39:28;98878.66;;;19.52;40.62
62544;BME280;48597;49.030;1.822;2024-03-02T03:41:54;98868.50;;;19.51;40.62
62544;BME280;48597;49.030;1.822;2024-03-02T03:44:19;98865.66;;;19.51;40.59
62544;BME280;48597;49.030;1.822;2024-03-02T03:46:44;98882.78;;;19.51;40.50
62544;BME280;48597;49.030;1.822;2024-03-02T03:49:10;98864.06;;;19.50;40.54
62544;BME280;48597;49.030;1.822;2024-03-02T03:51:35;98870.56;;;19.51;40.80
62544;BME280;48597;49.030;1.822;2024-03-02T03:54:01;98866.13;;;19.50;40.68
62544;BME280;48597;49.030;1.822;2024-03-02T03:56:26;98869.78;;;19.50;40.49
62544;BME280;48597;49.030;1.822;2024-03-02T03:58:52;98872.66;;;19.50;40.74
62544;BME280;48597;49.030;1.822;2024-03-02T04:01:17;98869.00;;;19.50;40.56
62544;BME280;48597;49.030;1.822;2024-03-02T04:03:43;98863.75;;;19.48;40.56
62544;BME280;48597;49.030;1.822;2024-03-02T04:06:08;98866.59;;;19.48;40.53
62544;BME280;48597;49.030;1.822;2024-03-02T04:08:34;98874.38;;;19.48;40.66
62544;BME280;48597;49.030;1.822;2024-03-02T04:10:59;98870.00;;;19.47;40.65
62544;BME280;48597;49.030;1.822;2024-03-02T04:13:24;98866.59;;;19.48;40.86
62544;BME280;48597;49.030;1.822;2024-03-02T04:15:50;98862.97;;;19.48;40.71
62544;BME280;48597;49.030;1.822;2024-03-02T04:18:15;98858.03;;;19.48;40.57
62544;BME280;48597;49.030;1.822;2024-03-02T04:20:41;98857.25;;;19.48;40.69
62544;BME280;48597;49.030;1.822;2024-03-02T04:23:06;98853.63;;;19.47;40.67
62544;BME280;48597;49.030;1.822;2024-03-02T04:25:32;98858.56;;;19.47;40.65
62544;BME280;48597;49.030;1.822;2024-03-02T04:27:58;98860.63;;;19.46;40.66
62544;BME280;48597;49.030;1.822;2024-03-02T04:30:23;98858.25;;;19.45;40.58
62544;BME280;48597;49.030;1.822;2024-03-02T04:32:50;98850.47;;;19.45;40.55
62544;BME280;48597;49.030;1.822;2024-03-02T04:35:15;98860.81;;;19.43;40.52
62544;BME280;48597;49.030;1.822;2024-03-02T04:37:41;98860.34;;;19.44;40.53
62544;BME280;48597;49.030;1.822;2024-03-02T04:40:07;98867.81;;;19.42;40.48
62544;BME280;48597;49.030;1.822;2024-03-02T04:42:35;98867.03;;;19.41;40.14
62544;BME280;48597;49.030;1.822;2024-03-02T04:45:01;98874.81;;;19.41;40.37
62544;BME280;48597;49.030;1.822;2024-03-02T04:47:26;98879.75;;;19.40;40.18
62544;BME280;48597;49.030;1.822;2024-03-02T04:49:52;98863.88;;;19.39;40.21
62544;BME280;48597;49.030;1.822;2024-03-02T04:52:17;98875.78;;;19.38;40.16
62544;BME280;48597;49.030;1.822;2024-03-02T04:54:43;98874.22;;;19.37;40.30
62544;BME280;48597;49.030;1.822;2024-03-02T04:57:27;98853.16;;;19.34;40.12
62544;BME280;48597;49.030;1.822;2024-03-02T04:59:52;98858.88;;;19.34;39.99
62544;BME280;48597;49.030;1.822;2024-03-02T05:02:18;98848.72;;;19.33;40.02
62544;BME280;48597;49.030;1.822;2024-03-02T05:04:43;98844.31;;;19.32;40.02
62544;BME280;48597;49.030;1.822;2024-03-02T05:07:08;98849.72;;;19.30;40.35
62544;BME280;48597;49.030;1.822;2024-03-02T05:09:34;98836.22;;;19.31;39.96
62544;BME280;48597;49.030;1.822;2024-03-02T05:11:59;98842.72;;;19.31;40.01
62544;BME280;48597;49.030;1.822;2024-03-02T05:14:42;98836.22;;;19.31;39.99
62544;BME280;48597;49.030;1.822;2024-03-02T05:17:07;98836.72;;;19.29;40.04
62544;BME280;48597;49.030;1.822;2024-03-02T05:19:33;98840.06;;;19.27;39.85
62544;BME280;48597;49.030;1.822;2024-03-02T05:21:58;98849.44;;;19.28;39.92
62544;BME280;48597;49.030;1.822;2024-03-02T05:24:24;98843.41;;;19.26;39.87
62544;BME280;48597;49.030;1.822;2024-03-02T05:26:52;98838.50;;;19.26;39.72
62544;BME280;48597;49.030;1.822;2024-03-02T05:29:17;98843.13;;;19.24;39.88
62544;BME280;48597;49.030;1.822;2024-03-02T05:31:43;98851.19;;;19.25;39.73
62544;BME280;48597;49.030;1.822;2024-03-02T05:34:08;98837.41;;;19.24;39.59
62544;BME280;48597;49.030;1.822;2024-03-02T05:36:33;98834.25;;;19.22;39.57
62544;BME280;48597;49.030;1.822;2024-03-02T05:38:58;98834.25;;;19.22;39.52
62544;BME280;48597;49.030;1.822;2024-03-02T05:41:24;98844.63;;;19.19;39.73
62544;BME280;48597;49.030;1.822;2024-03-02T05:43:49;98843.53;;;19.17;39.45
62544;BME280;48597;49.030;1.822;2024-03-02T05:46:14;98857.31;;;19.18;39.48
62544;BME280;48597;49.030;1.822;2024-03-02T05:48:40;98851.31;;;19.16;39.87
62544;BME280;48597;49.030;1.822;2024-03-02T05:51:05;98858.59;;;19.17;39.54
62544;BME280;48597;49.030;1.822;2024-03-02T05:53:30;98859.88;;;19.16;39.62
62544;BME280;48597;49.030;1.822;2024-03-02T05:55:56;98853.38;;;19.16;39.62
62544;BME280;48597;49.030;1.822;2024-03-02T05:58:22;98839.09;;;19.16;39.72
62544;BME280;48597;49.030;1.822;2024-03-02T06:01:16;98843.25;;;19.15;39.54
62544;BME280;48597;49.030;1.822;2024-03-02T06:03:43;98835.97;;;19.14;39.95
62544;BME280;48597;49.030;1.822;2024-03-02T06:06:08;98839.59;;;19.14;39.71
62544;BME280;48597;49.030;1.822;2024-03-02T06:08:33;98832.31;;;19.13;39.77
62544;BME280;48597;49.030;1.822;2024-03-02T06:11:00;98832.31;;;19.13;39.75
62544;BME280;48597;49.030;1.822;2024-03-02T06:13:25;98829.94;;;19.12;39.76
62544;BME280;48597;49.030;1.822;2024-03-02T06:15:51;98829.16;;;19.11;39.79
62544;BME280;48597;49.030;1.822;2024-03-02T06:18:17;98835.34;;;19.10;39.48
62544;BME280;48597;49.030;1.822;2024-03-02T06:20:42;98832.50;;;19.10;39.64
62544;BME280;48597;49.030;1.822;2024-03-02T06:23:07;98832.50;;;19.10;39.49
62544;BME280;48597;49.030;1.822;2024-03-02T06:25:33;98827.59;;;19.10;39.53
62544;BME280;48597;49.030;1.822;2024-03-02T06:27:58;98822.34;;;19.09;39.40
62544;BME280;48597;49.030;1.822;2024-03-02T06:30:24;98817.97;;;19.08;39.43
62544;BME280;48597;49.030;1.822;2024-03-02T06:32:49;98817.16;;;19.07;39.44
62544;BME280;48597;49.030;1.822;2024-03-02T06:35:14;98809.41;;;19.08;39.49
62544;BME280;48597;49.030;1.822;2024-03-02T06:37:40;98804.97;;;19.07;39.57
62544;BME280;48597;49.030;1.822;2024-03-02T06:40:06;98804.97;;;19.07;39.40
62544;BME280;48597;49.030;1.822;2024-03-02T06:42:33;98816.38;;;19.07;39.44
62544;BME280;48597;49.030;1.822;2024-03-02T06:44:59;98810.66;;;19.07;39.52
62544;BME280;48597;49.030;1.822;2024-03-02T06:47:24;98806.72;;;19.04;39.34
62544;BME280;48597;49.030;1.822;2024-03-02T06:49:50;98813.72;;;19.03;39.28
62544;BME280;48597;49.030;1.822;2024-03-02T06:52:16;98815.00;;;19.02;39.44
62544;BME280;48597;49.030;1.822;2024-03-02T06:54:41;98821.19;;;19.01;39.64
62544;BME280;48597;49.030;1.822;2024-03-02T06:57:06;98825.34;;;19.00;39.41
62544;BME280;48597;49.030;1.822;2024-03-02T06:59:32;98813.63;;;18.98;39.47
62544;BME280;48597;49.030;1.822;2024-03-02T07:01:58;98807.91;;;18.98;39.51
62544;BME280;48597;49.030;1.822;2024-03-02T07:04:24;98802.19;;;18.98;39.48
62544;BME280;48597;49.030;1.822;2024-03-02T07:06:49;98818.53;;;18.97;40.20
62544;BME280;48597;49.030;1.822;2024-03-02T07:09:14;98820.91;;;18.99;40.67
62544;BME280;48597;49.030;1.822;2024-03-02T07:11:39;98823.28;;;19.00;40.95
62544;BME280;48597;49.030;1.822;2024-03-02T07:14:05;98838.63;;;19.03;41.66
62544;BME280;48597;49.030;1.822;2024-03-02T07:16:31;98821.50;;;19.03;41.96
62544;BME280;48597;49.030;1.822;2024-03-02T07:18:58;98819.72;;;19.05;42.16
62544;BME280;48597;49.030;1.822;2024-03-02T07:21:24;98822.09;;;19.07;42.06
62544;BME280;48597;49.030;1.822;2024-03-02T07:23:50;98833.03;;;19.08;42.17
62544;BME280;48597;49.030;1.822;2024-03-02T07:26:15;98833.28;;;19.10;42.44
62544;BME280;48597;49.030;1.822;2024-03-02T07:28:43;98834.66;;;19.15;42.45
62544;BME280;48597;49.030;1.822;2024-03-02T07:31:09;98828.75;;;19.18;42.47
62544;BME280;48597;49.030;1.822;2024-03-02T07:33:35;98814.78;;;19.20;42.73
62544;BME280;48597;49.030;1.822;2024-03-02T07:36:00;98819.00;;;19.25;42.54
62544;BME280;48597;49.030;1.822;2024-03-02T07:38:27;98824.50;;;19.28;42.55
62544;BME280;48597;49.030;1.822;2024-03-02T07:40:53;98820.66;;;19.32;42.61
62544;BME280;48597;49.030;1.822;2024-03-02T07:43:20;98816.78;;;19.35;42.50
62544;BME280;48597;49.030;1.822;2024-03-02T07:45:46;98817.09;;;19.37;42.72
62544;BME280;48597;49.030;1.822;2024-03-02T07:48:11;98815.31;;;19.39;42.68
62544;BME280;48597;49.030;1.822;2024-03-02T07:50:37;98805.16;;;19.38;42.80
62544;BME280;48597;49.030;1.822;2024-03-02T07:53:04;98808.31;;;19.40;43.08
62544;BME280;48597;49.030;1.822;2024-03-02T07:55:30;98818.47;;;19.41;42.84
62544;BME280;48597;49.030;1.822;2024-03-02T07:57:56;98817.19;;;19.42;42.85
62544;BME280;48597;49.030;1.822;2024-03-02T08:00:22;98816.69;;;19.44;42.90
62544;BME280;48597;49.030;1.822;2024-03-02T08:02:48;98812.25;;;19.43;42.82
62544;BME280;48597;49.030;1.822;2024-03-02T08:05:14;98808.13;;;19.44;43.04
62544;BME280;48597;49.030;1.822;2024-03-02T08:07:40;98812.53;;;19.45;43.01
62544;BME280;48597;49.030;1.822;2024-03-02T08:10:06;98817.47;;;19.44;43.26
62544;BME280;48597;49.030;1.822;2024-03-02T08:12:32;98817.75;;;19.46;43.18
62544;BME280;48597;49.030;1.822;2024-03-02T08:14:57;98812.06;;;19.46;43.10
62544;BME280;48597;49.030;1.822;2024-03-02T08:17:22;98813.81;;;19.44;43.07
62544;BME280;48597;49.030;1.822;2024-03-02T08:19:48;98815.91;;;19.43;43.02
62544;BME280;48597;49.030;1.822;2024-03-02T08:22:14;98822.41;;;19.44;42.92
62544;BME280;48597;49.030;1.822;2024-03-02T08:24:40;98815.91;;;19.43;43.04
62544;BME280;48597;49.030;1.822;2024-03-02T08:27:06;98820.31;;;19.44;42.93
62544;BME280;48597;49.030;1.822;2024-03-02T08:29:31;98810.97;;;19.44;43.06
62544;BME280;48597;49.030;1.822;2024-03-02T08:31:57;98812.25;;;19.43;43.03
62544;BME280;48597;49.030;1.822;2024-03-02T08:34:22;98813.53;;;19.42;43.29
62544;BME280;48597;49.030;1.822;2024-03-02T08:36:48;98821.63;;;19.43;42.96
62544;BME280;48597;49.030;1.822;2024-03-02T08:39:13;98811.47;;;19.42;43.07
62544;BME280;48597;49.030;1.822;2024-03-02T08:41:44;98813.53;;;19.42;43.08
62544;BME280;48597;49.030;1.822;2024-03-02T08:44:09;98820.53;;;19.41;43.11
62544;BME280;48597;49.030;1.822;2024-03-02T08:46:34;98806.25;;;19.41;42.99
62544;BME280;48597;49.030;1.822;2024-03-02T08:49:00;98803.38;;;19.41;42.95
62544;BME280;48597;49.030;1.822;2024-03-02T08:51:25;98798.47;;;19.41;42.59
62544;BME280;48597;49.030;1.822;2024-03-02T08:53:51;98794.81;;;19.41;42.83
62544;BME280;48597;49.030;1.822;2024-03-02T08:56:16;98799.75;;;19.40;42.83
62544;BME280;48597;49.030;1.822;2024-03-02T08:58:41;98800.53;;;19.41;42.83
62544;BME280;48597;49.030;1.822;2024-03-02T09:01:08;98806.25;;;19.41;42.79
62544;BME280;48597;49.030;1.822;2024-03-02T09:03:34;98804.97;;;19.42;42.69
62544;BME280;48597;49.030;1.822;2024-03-02T09:06:00;98811.97;;;19.41;42.66
62544;BME280;48597;49.030;1.822;2024-03-02T09:08:25;98811.16;;;19.40;42.37
62544;BME280;48597;49.030;1.822;2024-03-02T09:10:51;98817.66;;;19.41;42.46
62544;BME280;48597;49.030;1.822;2024-03-02T09:13:16;98817.66;;;19.41;42.42
62544;BME280;48597;49.030;1.822;2024-03-02T09:15:42;98811.97;;;19.41;42.06
62544;BME280;48597;49.030;1.822;2024-03-02T09:18:07;98827.03;;;19.41;42.44
62544;BME280;48597;49.030;1.822;2024-03-02T09:20:33;98824.97;;;19.42;42.06
62544;BME280;48597;49.030;1.822;2024-03-02T09:22:58;98816.38;;;19.42;42.02
62544;BME280;48597;49.030;1.822;2024-03-02T09:25:23;98820.53;;;19.41;42.00
62544;BME280;48597;49.030;1.822;2024-03-02T09:27:49;98816.88;;;19.40;42.10
62544;BME280;48597;49.030;1.822;2024-03-02T09:30:14;98809.59;;;19.39;41.99
62544;BME280;48597;49.030;1.822;2024-03-02T09:32:39;98821.81;;;19.40;42.06
62544;BME280;48597;49.030;1.822;2024-03-02T09:35:05;98819.75;;;19.40;42.10
62544;BME280;48597;49.030;1.822;2024-03-02T09:37:31;98811.16;;;19.40;42.13
62544;BME280;48597;49.030;1.822;2024-03-02T09:39:56;98817.66;;;19.41;42.18
62544;BME280;48597;49.030;1.822;2024-03-02T09:42:22;98819.75;;;19.40;42.18
62544;BME280;48597;49.030;1.822;2024-03-02T09:44:48;98811.97;;;19.41;41.93
62544;BME280;48597;49.030;1.822;2024-03-02T09:47:13;98813.25;;;19.40;41.96
62544;BME280;48597;49.030;1.822;2024-03-02T09:49:39;98807.53;;;19.40;41.89
62544;BME280;48597;49.030;1.822;2024-03-02T09:52:05;98801.81;;;19.40;42.01
62544;BME280;48597;49.030;1.822;2024-03-02T09:54:32;98795.31;;;19.39;41.98
62544;BME280;48597;49.030;1.822;2024-03-02T09:56:57;98787.53;;;19.40;42.08
62544;BME280;48597;49.030;1.822;2024-03-02T09:59:23;98792.44;;;19.39;42.09
62544;BME280;48597;49.030;1.822;2024-03-02T10:02:02;98792.44;;;19.39;42.07
62544;BME280;48597;49.030;1.822;2024-03-02T10:04:29;98801.03;;;19.39;42.44
62544;BME280;48597;49.030;1.822;2024-03-02T10:07:15;98790.88;;;19.38;42.39
62544;BME280;48597;49.030;1.822;2024-03-02T10:09:41;98796.09;;;19.40;42.30
62544;BME280;48597;49.030;1.822;2024-03-02T10:12:11;98798.16;;;19.39;42.34
62544;BME280;48597;49.030;1.822;2024-03-02T10:14:37;98796.88;;;19.40;42.42
62544;BME280;48597;49.030;1.822;2024-03-02T10:17:13;98778.66;;;19.38;42.26
62544;BME280;48597;49.030;1.822;2024-03-02T10:19:39;98786.75;;;19.39;42.29
62544;BME280;48597;49.030;1.822;2024-03-02T10:22:09;98794.53;;;19.39;42.31
62544;BME280;48597;49.030;1.822;2024-03-02T10:24:42;98789.59;;;19.39;42.33
62544;BME280;48597;49.030;1.822;2024-03-02T10:27:22;98790.38;;;19.40;42.33
62544;BME280;48597;49.030;1.822;2024-03-02T10:29:48;98786.75;;;19.39;42.38
62544;BME280;48597;49.030;1.822;2024-03-02T10:32:15;98786.75;;;19.39;42.42
62544;BME280;48597;49.030;1.822;2024-03-02T10:34:42;98790.88;;;19.38;42.45
62544;BME280;48597;49.030;1.822;2024-03-02T10:37:08;98786.75;;;19.39;42.61
62544;BME280;48597;49.030;1.822;2024-03-02T10:39:36;98796.09;;;19.40;42.44
62544;BME280;48597;49.030;1.822;2024-03-02T10:42:03;98800.22;;;19.39;42.46
62544;BME280;48597;49.030;1.822;2024-03-02T10:44:30;98788.81;;;19.39;42.53
62544;BME280;48597;49.030;1.822;2024-03-02T10:46:55;98789.59;;;19.39;42.53
62544;BME280;48597;49.030;1.822;2024-03-02T10:49:22;98801.81;;;19.40;42.55
62544;BME280;48597;49.030;1.822;2024-03-02T10:51:49;98801.03;;;19.39;42.63
62544;BME280;48597;49.030;1.822;2024-03-02T10:54:14;98802.31;;;19.38;42.64
62544;BME280;48597;49.030;1.822;2024-03-02T10:56:41;98794.22;;;19.37;43.33
62544;BME280;48597;49.030;1.822;2024-03-02T11:01:38;98794.72;;;19.35;43.89
62544;BME280;48597;49.030;1.822;2024-03-02T11:04:04;98786.16;;;19.35;43.91
62544;BME280;48597;49.030;1.822;2024-03-02T11:06:32;98781.75;;;19.34;44.42
62544;BME280;48597;49.030;1.822;2024-03-02T11:09:00;98782.50;;;19.35;44.35
62544;BME280;48597;49.030;1.822;2024-03-02T11:11:32;98778.38;;;19.36;44.49
62544;BME280;48597;49.030;1.822;2024-03-02T11:14:01;98769.00;;;19.35;44.32
62544;BME280;48597;49.030;1.822;2024-03-02T11:16:36;98763.28;;;19.35;44.30
62544;BME280;48597;49.030;1.822;2024-03-02T11:19:08;98773.19;;;19.34;44.42
62544;BME280;48597;49.030;1.822;2024-03-02T11:21:35;98766.94;;;19.36;44.15
62544;BME280;48597;49.030;1.822;2024-03-02T11:24:13;98769.81;;;19.36;44.32
62544;BME280;48597;49.030;1.822;2024-03-02T11:26:46;98765.91;;;19.33;44.16
62544;BME280;48597;49.030;1.822;2024-03-02T11:34:32;98772.88;;;19.32;44.48
62544;BME280;48597;49.030;1.822;2024-03-02T11:36:58;98758.59;;;19.32;44.35
62544;BME280;48597;49.030;1.822;2024-03-02T11:39:28;98752.91;;;19.32;44.37
62544;BME280;48597;49.030;1.822;2024-03-02T11:41:57;98757.31;;;19.33;44.30
62544;BME280;48597;49.030;1.822;2024-03-02T11:44:26;98758.59;;;19.32;44.45
62544;BME280;48597;49.030;1.822;2024-03-02T11:46:52;98747.97;;;19.33;44.60
62544;BME280;48597;49.030;1.822;2024-03-02T11:49:42;98744.31;;;19.32;44.70
62544;BME280;48597;49.030;1.822;2024-03-02T11:52:09;98747.19;;;19.32;44.47
62544;BME280;48597;49.030;1.822;2024-03-02T11:54:38;98748.47;;;19.31;44.78
62544;BME280;48597;49.030;1.822;2024-03-02T11:57:12;98733.38;;;19.31;44.68
62544;BME280;48597;49.030;1.822;2024-03-02T11:59:39;98733.38;;;19.31;44.73
62544;BME280;48597;49.030;1.822;2024-03-02T12:02:05;98746.41;;;19.32;44.66
62544;BME280;48597;49.030;1.822;2024-03-02T12:04:31;98727.69;;;19.31;45.01
62544;BME280;48597;49.030;1.822;2024-03-02T12:06:58;98733.38;;;19.31;44.89
62544;BME280;48597;49.030;1.822;2024-03-02T12:09:27;98723.25;;;19.30;45.09
62544;BME280;48597;49.030;1.822;2024-03-02T12:14:36;98725.31;;;19.29;44.99
62544;BME280;48597;49.030;1.822;2024-03-02T12:17:02;98723.25;;;19.30;44.99
62544;BME280;48597;49.030;1.822;2024-03-02T12:19:28;98720.88;;;19.28;44.94
62544;BME280;48597;49.030;1.822;2024-03-02T12:21:56;98715.16;;;19.28;44.89
62544;BME280;48597;49.030;1.822;2024-03-02T12:24:21;98707.88;;;19.27;45.21
62544;BME280;48597;49.030;1.822;2024-03-02T12:26:48;98716.47;;;19.27;45.07
62544;BME280;48597;49.030;1.822;2024-03-02T12:29:15;98711.53;;;19.27;45.17
62544;BME280;48597;49.030;1.822;2024-03-02T12:31:41;98709.97;;;19.26;45.23
62544;BME280;48597;49.030;1.822;2024-03-02T12:34:07;98705.81;;;19.27;45.16
62544;BME280;48597;49.030;1.822;2024-03-02T12:36:39;98707.88;;;19.27;45.03
62544;BME280;48597;49.030;1.822;2024-03-02T12:39:06;98705.03;;;19.27;45.03
62544;BME280;48597;49.030;1.822;2024-03-02T12:41:38;98708.69;;;19.27;45.08
62544;BME280;48597;49.030;1.822;2024-03-02T12:44:06;98712.81;;;19.26;45.05
62544;BME280;48597;49.030;1.822;2024-03-02T12:46:32;98712.03;;;19.26;45.11
62544;BME280;48597;49.030;1.822;2024-03-02T12:48:58;98708.69;;;19.27;44.96
62544;BME280;48597;49.030;1.822;2024-03-02T12:51:24;98705.81;;;19.27;45.23
62544;BME280;48597;49.030;1.822;2024-03-02T12:53:54;98707.38;;;19.28;45.02
62544;BME280;48597;49.030;1.822;2024-03-02T12:56:20;98695.69;;;19.26;45.17
62544;BME280;48597;49.030;1.822;2024-03-02T12:58:45;98702.19;;;19.27;45.35
62544;BME280;48597;49.030;1.822;2024-03-02T13:01:11;98709.97;;;19.26;45.19
62544;BME280;48597;49.030;1.822;2024-03-02T13:03:39;98711.53;;;19.27;45.17
62544;BME280;48597;49.030;1.822;2024-03-02T13:06:06;98701.38;;;19.26;45.20
62544;BME280;48597;49.030;1.822;2024-03-02T13:08:32;98700.59;;;19.26;45.45